createdAt,value
2022-11-19T00:08:11.261Z,21.05
2022-11-19T00:13:05.109Z,24.20
2022-11-19T00:17:59.252Z,23.92
2022-11-19T00:22:59.935Z,24.95
2022-11-19T00:27:51.043Z,27.48
2022-11-19T00:32:43.983Z,28.15
2022-11-19T00:37:38.958Z,29.25
2022-11-19T00:42:36.917Z,31.08
2022-11-19T00:47:28.319Z,29.08
2022-11-19T00:52:20.112Z,27.70
2022-11-19T00:57:11.013Z,28.90
2022-11-19T01:02:05.723Z,27.63
2022-11-19T01:06:57.050Z,27.65
2022-11-19T01:11:49.174Z,29.47
2022-11-19T01:16:46.737Z,30.10
2022-11-19T01:21:43.445Z,28.30
2022-11-19T01:26:40.565Z,31.05
2022-11-19T01:31:39.150Z,28.42
2022-11-19T01:36:39.120Z,30.10
2022-11-19T01:41:35.146Z,28.50
2022-11-19T01:46:32.720Z,29.60
2022-11-19T01:51:32.079Z,27.58
2022-11-19T01:56:29.704Z,28.43
2022-11-19T02:01:29.277Z,26.83
2022-11-19T02:06:22.132Z,30.03
2022-11-19T02:11:34.541Z,31.33
2022-11-19T02:16:36.462Z,31.33
2022-11-19T02:21:44.734Z,28.95
2022-11-19T02:27:04.876Z,27.30
2022-11-19T02:32:19.335Z,24.83
2022-11-19T02:37:17.017Z,29.73
2022-11-19T02:42:21.153Z,26.88
2022-11-19T02:47:23.688Z,25.38
2022-11-19T02:52:16.213Z,25.90
2022-11-19T02:57:08.351Z,22.10
2022-11-19T03:02:11.762Z,22.45
2022-11-19T03:07:10.803Z,26.83
2022-11-19T03:12:15.925Z,24.25
2022-11-19T03:17:15.276Z,32.40
2022-11-19T03:22:17.428Z,32.00
2022-11-19T03:27:20.733Z,24.65
2022-11-19T03:32:19.717Z,29.50
2022-11-19T03:37:38.535Z,30.70
2022-11-19T03:42:42.617Z,29.70
2022-11-19T03:47:41.127Z,28.23
2022-11-19T03:52:42.545Z,29.73
2022-11-19T03:57:45.315Z,30.63
2022-11-19T04:02:38.772Z,30.33
2022-11-19T04:07:31.314Z,29.77
2022-11-19T04:12:34.980Z,30.73
2022-11-19T04:17:25.786Z,29.08
2022-11-19T04:22:21.430Z,27.35
2022-11-19T04:27:21.680Z,26.00
2022-11-19T04:32:17.053Z,27.75
2022-11-19T04:37:08.616Z,25.92
2022-11-19T04:41:59.820Z,30.17
2022-11-19T04:46:50.631Z,30.85
2022-11-19T04:51:44.187Z,33.53
2022-11-19T04:56:42.145Z,29.48
2022-11-19T05:01:34.673Z,31.92
2022-11-19T05:06:27.567Z,33.17
2022-11-19T05:11:24.951Z,34.60
2022-11-19T05:16:19.233Z,31.83
2022-11-19T05:21:10.977Z,33.97
2022-11-19T05:26:05.198Z,32.85
2022-11-19T05:31:04.700Z,33.53
2022-11-19T05:36:00.531Z,36.08
2022-11-19T05:40:51.443Z,36.35
2022-11-19T05:45:42.670Z,36.97
2022-11-19T05:50:36.715Z,39.93
2022-11-19T05:55:31.065Z,37.15
2022-11-19T06:00:22.877Z,40.07
2022-11-19T06:05:17.931Z,37.00
2022-11-19T06:10:17.958Z,37.97
2022-11-19T06:15:10.104Z,39.90
2022-11-19T06:20:05.004Z,39.30
2022-11-19T06:25:00.377Z,38.28
2022-11-19T06:29:56.987Z,41.40
2022-11-19T06:34:49.527Z,38.05
2022-11-19T06:39:43.839Z,39.37
2022-11-19T06:44:36.365Z,40.85
2022-11-19T06:49:38.533Z,40.15
2022-11-19T06:54:29.657Z,38.63
2022-11-19T06:59:23.160Z,39.63
2022-11-19T07:04:14.724Z,39.35
2022-11-19T07:09:11.540Z,40.45
2022-11-19T07:14:06.242Z,39.97
2022-11-19T07:19:02.356Z,37.90
2022-11-19T07:23:53.161Z,38.05
2022-11-19T07:28:48.817Z,40.42
2022-11-19T07:33:41.521Z,41.83
2022-11-19T07:38:37.168Z,41.60
2022-11-19T07:43:30.150Z,39.53
2022-11-19T07:48:30.795Z,42.27
2022-11-19T07:53:24.290Z,40.87
2022-11-19T07:58:22.489Z,41.77
2022-11-19T08:03:15.779Z,43.63
2022-11-19T08:08:13.529Z,40.35
2022-11-19T08:13:12.282Z,42.20
2022-11-19T08:18:17.431Z,42.47
2022-11-19T08:23:29.301Z,40.55
2022-11-19T08:28:21.049Z,37.90
2022-11-19T08:33:27.217Z,39.23
2022-11-19T08:38:27.981Z,40.05
2022-11-19T08:43:23.548Z,35.85
2022-11-19T08:48:17.633Z,33.70
2022-11-19T08:53:10.354Z,35.90
2022-11-19T08:58:12.766Z,37.67
2022-11-19T09:03:04.657Z,38.63
2022-11-19T09:08:01.692Z,34.95
2022-11-19T09:12:55.794Z,33.47
2022-11-19T09:17:56.634Z,33.30
2022-11-19T09:22:51.087Z,32.65
2022-11-19T09:27:43.384Z,35.65
2022-11-19T09:32:43.266Z,36.33
2022-11-19T09:37:46.167Z,32.67
2022-11-19T09:42:54.360Z,35.40
2022-11-19T09:48:02.254Z,36.70
2022-11-19T09:53:07.026Z,35.20
2022-11-19T09:58:05.218Z,33.90
2022-11-19T10:03:07.267Z,36.87
2022-11-19T10:08:23.339Z,36.40
2022-11-19T10:13:32.596Z,34.37
2022-11-19T10:18:37.276Z,32.35
2022-11-19T10:23:45.914Z,33.37
2022-11-19T10:28:43.375Z,32.88
2022-11-19T10:33:45.591Z,30.88
2022-11-19T10:38:55.125Z,30.38
2022-11-19T10:43:56.337Z,31.63
2022-11-19T10:48:54.241Z,33.33
